sensor_id;sensor_type;location;lat;lon;timestamp;pressure;altitude;pressure_sealevel;temperature;humidity
3598;BME280;1813;52.016;8.714;2022-08-07T00:02:12;-16261.94;;;-139.71;64.46
3598;BME280;1813;52.016;8.714;2022-08-07T00:04:44;-16261.94;;;-139.71;64.50
3598;BME280;1813;52.016;8.714;2022-08-07T00:07:17;-16261.94;;;-139.71;65.22
3598;BME280;1813;52.016;8.714;2022-08-07T00:09:49;-16261.94;;;-139.71;65.62
3598;BME280;1813;52.016;8.714;2022-08-07T00:12:21;-16261.94;;;-139.71;65.98
3598;BME280;1813;52.016;8.714;2022-08-07T00:14:53;-16261.94;;;-139.71;67.08
3598;BME280;1813;52.016;8.714;2022-08-07T00:17:25;-16261.94;;;-139.71;67.41
3598;BME280;1813;52.016;8.714;2022-08-07T00:19:57;-16261.94;;;-139.71;67.53
3598;BME280;1813;52.016;8.714;2022-08-07T00:22:30;-16261.94;;;-139.71;67.62
3598;BME280;1813;52.016;8.714;2022-08-07T00:25:03;-16261.94;;;-139.71;67.29
3598;BME280;1813;52.016;8.714;2022-08-07T00:27:35;-16261.94;;;-139.71;67.38
3598;BME280;1813;52.016;8.714;2022-08-07T00:30:08;-16261.94;;;-139.71;67.73
3598;BME280;1813;52.016;8.714;2022-08-07T00:32:40;-16261.94;;;-139.71;67.87
3598;BME280;1813;52.016;8.714;2022-08-07T00:35:12;-16261.94;;;-139.71;67.05
3598;BME280;1813;52.016;8.714;2022-08-07T00:37:46;-16261.94;;;-139.71;66.62
3598;BME280;1813;52.016;8.714;2022-08-07T00:40:18;-16261.94;;;-139.71;66.29
3598;BME280;1813;52.016;8.714;2022-08-07T00:42:50;-16261.94;;;-139.71;66.49
3598;BME280;1813;52.016;8.714;2022-08-07T00:45:22;-16261.94;;;-139.71;66.11
3598;BME280;1813;52.016;8.714;2022-08-07T00:47:54;-16261.94;;;-139.71;65.84
3598;BME280;1813;52.016;8.714;2022-08-07T00:50:26;-16261.94;;;-139.71;65.50
3598;BME280;1813;52.016;8.714;2022-08-07T00:53:00;-16261.94;;;-139.71;65.31
3598;BME280;1813;52.016;8.714;2022-08-07T00:55:32;-16261.94;;;-139.71;65.46
3598;BME280;1813;52.016;8.714;2022-08-07T00:58:04;-16261.94;;;-139.71;66.06
3598;BME280;1813;52.016;8.714;2022-08-07T01:00:36;-16261.94;;;-139.71;66.64
3598;BME280;1813;52.016;8.714;2022-08-07T01:03:08;-16261.94;;;-139.71;66.48
3598;BME280;1813;52.016;8.714;2022-08-07T01:05:41;-16261.94;;;-139.71;66.66
3598;BME280;1813;52.016;8.714;2022-08-07T01:08:16;-16261.94;;;-139.71;66.79
3598;BME280;1813;52.016;8.714;2022-08-07T01:10:48;-16261.94;;;-139.71;66.96
3598;BME280;1813;52.016;8.714;2022-08-07T01:13:20;-16261.94;;;-139.71;65.99
3598;BME280;1813;52.016;8.714;2022-08-07T01:15:55;-16261.94;;;-139.71;64.95
3598;BME280;1813;52.016;8.714;2022-08-07T01:18:29;-16261.94;;;-139.71;65.49
3598;BME280;1813;52.016;8.714;2022-08-07T01:21:08;-16261.94;;;-139.71;66.25
3598;BME280;1813;52.016;8.714;2022-08-07T01:23:43;-16261.94;;;-139.71;66.36
3598;BME280;1813;52.016;8.714;2022-08-07T01:26:17;-16261.94;;;-139.71;65.40
3598;BME280;1813;52.016;8.714;2022-08-07T01:28:52;-16261.94;;;-139.71;66.13
3598;BME280;1813;52.016;8.714;2022-08-07T01:31:28;-16261.94;;;-139.71;65.71
3598;BME280;1813;52.016;8.714;2022-08-07T01:34:05;-16261.94;;;-139.71;66.52
3598;BME280;1813;52.016;8.714;2022-08-07T01:36:44;-16261.94;;;-139.71;66.37
3598;BME280;1813;52.016;8.714;2022-08-07T01:39:19;-16261.94;;;-139.71;66.72
3598;BME280;1813;52.016;8.714;2022-08-07T01:42:00;-16261.94;;;-139.71;66.65
3598;BME280;1813;52.016;8.714;2022-08-07T01:44:34;-16261.94;;;-139.71;66.25
3598;BME280;1813;52.016;8.714;2022-08-07T01:47:07;-16261.94;;;-139.71;66.38
3598;BME280;1813;52.016;8.714;2022-08-07T01:49:40;-16261.94;;;-139.71;66.99
3598;BME280;1813;52.016;8.714;2022-08-07T01:52:14;-16261.94;;;-139.71;67.35
3598;BME280;1813;52.016;8.714;2022-08-07T01:54:49;-16261.94;;;-139.71;67.48
3598;BME280;1813;52.016;8.714;2022-08-07T01:57:27;-16261.94;;;-139.71;66.89
3598;BME280;1813;52.016;8.714;2022-08-07T02:00:03;-16261.94;;;-139.71;67.26
3598;BME280;1813;52.016;8.714;2022-08-07T02:02:45;-16261.94;;;-139.71;67.53
3598;BME280;1813;52.016;8.714;2022-08-07T02:05:22;-16261.94;;;-139.71;67.21
3598;BME280;1813;52.016;8.714;2022-08-07T02:08:00;-16261.94;;;-139.71;67.06
3598;BME280;1813;52.016;8.714;2022-08-07T02:10:39;-16261.94;;;-139.71;66.84
3598;BME280;1813;52.016;8.714;2022-08-07T02:13:13;-16261.94;;;-139.71;66.35
3598;BME280;1813;52.016;8.714;2022-08-07T02:15:53;-16261.94;;;-139.71;66.07
3598;BME280;1813;52.016;8.714;2022-08-07T02:18:28;-16261.94;;;-139.71;65.71
3598;BME280;1813;52.016;8.714;2022-08-07T02:21:03;-16261.94;;;-139.71;66.09
3598;BME280;1813;52.016;8.714;2022-08-07T02:23:38;-16261.94;;;-139.71;66.33
3598;BME280;1813;52.016;8.714;2022-08-07T02:26:12;-16261.94;;;-139.71;66.57
3598;BME280;1813;52.016;8.714;2022-08-07T02:28:46;-16261.94;;;-139.71;66.65
3598;BME280;1813;52.016;8.714;2022-08-07T02:31:19;-16261.94;;;-139.71;66.99
3598;BME280;1813;52.016;8.714;2022-08-07T02:33:55;-16261.94;;;-139.71;67.19
3598;BME280;1813;52.016;8.714;2022-08-07T02:36:28;-16261.94;;;-139.71;66.71
3598;BME280;1813;52.016;8.714;2022-08-07T02:39:03;-16261.94;;;-139.71;66.63
3598;BME280;1813;52.016;8.714;2022-08-07T02:41:42;-16261.94;;;-139.71;66.21
3598;BME280;1813;52.016;8.714;2022-08-07T02:44:16;-16261.94;;;-139.71;66.61
3598;BME280;1813;52.016;8.714;2022-08-07T02:46:51;-16261.94;;;-139.71;67.10
3598;BME280;1813;52.016;8.714;2022-08-07T02:49:25;-16261.94;;;-139.71;67.51
3598;BME280;1813;52.016;8.714;2022-08-07T02:52:00;-16261.94;;;-139.71;67.91
3598;BME280;1813;52.016;8.714;2022-08-07T02:54:40;-16261.94;;;-139.71;67.82
3598;BME280;1813;52.016;8.714;2022-08-07T02:57:13;-16261.94;;;-139.71;68.00
3598;BME280;1813;52.016;8.714;2022-08-07T02:59:48;-16261.94;;;-139.71;68.05
3598;BME280;1813;52.016;8.714;2022-08-07T03:02:24;-16261.94;;;-139.71;67.96
3598;BME280;1813;52.016;8.714;2022-08-07T03:04:57;-16261.94;;;-139.71;68.15
3598;BME280;1813;52.016;8.714;2022-08-07T03:07:31;-16261.94;;;-139.71;68.04
3598;BME280;1813;52.016;8.714;2022-08-07T03:10:06;-16261.94;;;-139.71;68.29
3598;BME280;1813;52.016;8.714;2022-08-07T03:12:39;-16261.94;;;-139.71;68.26
3598;BME280;1813;52.016;8.714;2022-08-07T03:15:16;-16261.94;;;-139.71;67.99
3598;BME280;1813;52.016;8.714;2022-08-07T03:17:48;-16261.94;;;-139.71;67.58
3598;BME280;1813;52.016;8.714;2022-08-07T03:20:22;-16261.94;;;-139.71;67.91
3598;BME280;1813;52.016;8.714;2022-08-07T03:22:55;-16261.94;;;-139.71;68.48
3598;BME280;1813;52.016;8.714;2022-08-07T03:25:31;-16261.94;;;-139.71;68.57
3598;BME280;1813;52.016;8.714;2022-08-07T03:28:04;-16261.94;;;-139.71;68.72
3598;BME280;1813;52.016;8.714;2022-08-07T03:30:39;-16261.94;;;-139.71;68.54
3598;BME280;1813;52.016;8.714;2022-08-07T03:33:12;-16261.94;;;-139.71;68.67
3598;BME280;1813;52.016;8.714;2022-08-07T03:35:45;-16261.94;;;-139.71;68.66
3598;BME280;1813;52.016;8.714;2022-08-07T03:38:18;-16261.94;;;-139.71;68.77
3598;BME280;1813;52.016;8.714;2022-08-07T03:40:52;-16261.94;;;-139.71;68.60
3598;BME280;1813;52.016;8.714;2022-08-07T03:43:25;-16261.94;;;-139.71;67.97
3598;BME280;1813;52.016;8.714;2022-08-07T03:45:58;-16261.94;;;-139.71;67.60
3598;BME280;1813;52.016;8.714;2022-08-07T03:48:32;-16261.94;;;-139.71;67.53
3598;BME280;1813;52.016;8.714;2022-08-07T03:51:04;-16261.94;;;-139.71;67.61
3598;BME280;1813;52.016;8.714;2022-08-07T03:53:43;-16261.94;;;-139.71;67.86
3598;BME280;1813;52.016;8.714;2022-08-07T03:56:19;-16261.94;;;-139.71;67.90
3598;BME280;1813;52.016;8.714;2022-08-07T03:58:52;-16261.94;;;-139.71;67.60
3598;BME280;1813;52.016;8.714;2022-08-07T04:01:25;-16261.94;;;-139.71;67.53
3598;BME280;1813;52.016;8.714;2022-08-07T04:03:59;-16261.94;;;-139.71;67.38
3598;BME280;1813;52.016;8.714;2022-08-07T04:06:31;-16261.94;;;-139.71;68.10
3598;BME280;1813;52.016;8.714;2022-08-07T04:09:04;-16261.94;;;-139.71;68.24
3598;BME280;1813;52.016;8.714;2022-08-07T04:11:38;-16261.94;;;-139.71;68.07
3598;BME280;1813;52.016;8.714;2022-08-07T04:14:11;-16261.94;;;-139.71;68.46
3598;BME280;1813;52.016;8.714;2022-08-07T04:16:44;-16261.94;;;-139.71;69.04
3598;BME280;1813;52.016;8.714;2022-08-07T04:19:16;-16261.94;;;-139.71;68.80
3598;BME280;1813;52.016;8.714;2022-08-07T04:21:54;-16261.94;;;-139.71;68.77
3598;BME280;1813;52.016;8.714;2022-08-07T04:24:27;-16261.94;;;-139.71;68.48
3598;BME280;1813;52.016;8.714;2022-08-07T04:27:02;-16261.94;;;-139.71;68.56
3598;BME280;1813;52.016;8.714;2022-08-07T04:29:34;-16261.94;;;-139.71;69.12
3598;BME280;1813;52.016;8.714;2022-08-07T04:32:07;-16261.94;;;-139.71;69.46
3598;BME280;1813;52.016;8.714;2022-08-07T04:34:41;-16261.94;;;-139.71;70.01
3598;BME280;1813;52.016;8.714;2022-08-07T04:37:13;-16261.94;;;-139.71;70.11
3598;BME280;1813;52.016;8.714;2022-08-07T04:39:45;-16261.94;;;-139.71;70.13
3598;BME280;1813;52.016;8.714;2022-08-07T04:42:18;-16261.94;;;-139.71;70.20
3598;BME280;1813;52.016;8.714;2022-08-07T04:44:50;-16261.94;;;-139.71;70.45
3598;BME280;1813;52.016;8.714;2022-08-07T04:47:28;-16261.94;;;-139.71;70.48
3598;BME280;1813;52.016;8.714;2022-08-07T04:50:05;-16261.94;;;-139.71;70.87
3598;BME280;1813;52.016;8.714;2022-08-07T04:52:48;-16261.94;;;-139.71;71.18
3598;BME280;1813;52.016;8.714;2022-08-07T04:55:25;-16261.94;;;-139.71;71.43
3598;BME280;1813;52.016;8.714;2022-08-07T04:58:14;-16261.94;;;-139.71;71.53
3598;BME280;1813;52.016;8.714;2022-08-07T05:00:52;-16261.94;;;-139.71;71.88
3598;BME280;1813;52.016;8.714;2022-08-07T05:03:29;-16261.94;;;-139.71;72.03
3598;BME280;1813;52.016;8.714;2022-08-07T05:06:06;-16261.94;;;-139.71;72.41
3598;BME280;1813;52.016;8.714;2022-08-07T05:08:45;-16261.94;;;-139.71;72.33
3598;BME280;1813;52.016;8.714;2022-08-07T05:11:21;-16261.94;;;-139.71;72.52
3598;BME280;1813;52.016;8.714;2022-08-07T05:14:00;-16261.94;;;-139.71;72.77
3598;BME280;1813;52.016;8.714;2022-08-07T05:16:34;-16261.94;;;-139.71;72.94
3598;BME280;1813;52.016;8.714;2022-08-07T05:19:11;-16261.94;;;-139.71;73.07
3598;BME280;1813;52.016;8.714;2022-08-07T05:21:48;-16261.94;;;-139.71;72.57
3598;BME280;1813;52.016;8.714;2022-08-07T05:24:25;-16261.94;;;-139.71;72.47
3598;BME280;1813;52.016;8.714;2022-08-07T05:27:00;-16261.94;;;-139.71;72.42
3598;BME280;1813;52.016;8.714;2022-08-07T05:29:34;-16261.94;;;-139.71;72.75
3598;BME280;1813;52.016;8.714;2022-08-07T05:32:10;-16261.94;;;-139.71;72.89
3598;BME280;1813;52.016;8.714;2022-08-07T05:34:46;-16261.94;;;-139.71;72.99
3598;BME280;1813;52.016;8.714;2022-08-07T05:37:20;-16261.94;;;-139.71;73.24
3598;BME280;1813;52.016;8.714;2022-08-07T05:40:00;-16261.94;;;-139.71;72.97
3598;BME280;1813;52.016;8.714;2022-08-07T05:42:34;-16261.94;;;-139.71;72.62
3598;BME280;1813;52.016;8.714;2022-08-07T05:45:11;-16261.94;;;-139.71;72.10
3598;BME280;1813;52.016;8.714;2022-08-07T05:47:43;-16261.94;;;-139.71;72.04
3598;BME280;1813;52.016;8.714;2022-08-07T05:50:16;-16261.94;;;-139.71;71.87
3598;BME280;1813;52.016;8.714;2022-08-07T05:52:48;-16261.94;;;-139.71;71.83
3598;BME280;1813;52.016;8.714;2022-08-07T05:55:20;-16261.94;;;-139.71;71.92
3598;BME280;1813;52.016;8.714;2022-08-07T05:57:53;-16261.94;;;-139.71;71.89
3598;BME280;1813;52.016;8.714;2022-08-07T06:00:28;-16261.94;;;-139.71;71.84
3598;BME280;1813;52.016;8.714;2022-08-07T06:03:07;-16261.94;;;-139.71;71.34
3598;BME280;1813;52.016;8.714;2022-08-07T06:05:41;-16261.94;;;-139.71;70.90
3598;BME280;1813;52.016;8.714;2022-08-07T06:08:14;-16261.94;;;-139.71;70.90
3598;BME280;1813;52.016;8.714;2022-08-07T06:10:48;-16261.94;;;-139.71;71.32
3598;BME280;1813;52.016;8.714;2022-08-07T06:13:20;-16261.94;;;-139.71;71.82
3598;BME280;1813;52.016;8.714;2022-08-07T06:15:55;-16261.94;;;-139.71;71.99
3598;BME280;1813;52.016;8.714;2022-08-07T06:18:31;-16261.94;;;-139.71;72.09
3598;BME280;1813;52.016;8.714;2022-08-07T06:21:03;-16261.94;;;-139.71;72.08
3598;BME280;1813;52.016;8.714;2022-08-07T06:23:38;-16261.94;;;-139.71;71.54
3598;BME280;1813;52.016;8.714;2022-08-07T06:26:12;-16261.94;;;-139.71;70.71
3598;BME280;1813;52.016;8.714;2022-08-07T06:28:49;-16261.94;;;-139.71;69.54
3598;BME280;1813;52.016;8.714;2022-08-07T06:31:23;-16261.94;;;-139.71;69.50
3598;BME280;1813;52.016;8.714;2022-08-07T06:33:55;-16261.94;;;-139.71;70.23
3598;BME280;1813;52.016;8.714;2022-08-07T06:36:28;-16261.94;;;-139.71;70.32
3598;BME280;1813;52.016;8.714;2022-08-07T06:39:01;-16261.94;;;-139.71;70.01
3598;BME280;1813;52.016;8.714;2022-08-07T06:41:38;-16261.94;;;-139.71;70.00
3598;BME280;1813;52.016;8.714;2022-08-07T06:44:13;-16261.94;;;-139.71;69.94
3598;BME280;1813;52.016;8.714;2022-08-07T06:46:48;-16261.94;;;-139.71;69.62
3598;BME280;1813;52.016;8.714;2022-08-07T06:49:20;-16261.94;;;-139.71;68.68
3598;BME280;1813;52.016;8.714;2022-08-07T06:51:53;-16261.94;;;-139.71;68.05
3598;BME280;1813;52.016;8.714;2022-08-07T06:54:26;-16261.94;;;-139.71;67.69
3598;BME280;1813;52.016;8.714;2022-08-07T06:56:59;-16261.94;;;-139.71;67.06
3598;BME280;1813;52.016;8.714;2022-08-07T06:59:39;-16261.94;;;-139.71;65.97
3598;BME280;1813;52.016;8.714;2022-08-07T07:02:17;-16261.94;;;-139.71;65.70
3598;BME280;1813;52.016;8.714;2022-08-07T07:04:49;-16261.94;;;-139.71;64.51
3598;BME280;1813;52.016;8.714;2022-08-07T07:07:24;-16261.94;;;-139.71;63.21
3598;BME280;1813;52.016;8.714;2022-08-07T07:09:56;-16261.94;;;-139.71;62.89
3598;BME280;1813;52.016;8.714;2022-08-07T07:12:36;-16261.94;;;-139.71;62.11
3598;BME280;1813;52.016;8.714;2022-08-07T07:15:13;-16261.94;;;-139.71;59.32
3598;BME280;1813;52.016;8.714;2022-08-07T07:17:53;-16261.94;;;-139.71;57.70
3598;BME280;1813;52.016;8.714;2022-08-07T07:20:31;-16261.94;;;-139.71;58.94
3598;BME280;1813;52.016;8.714;2022-08-07T07:23:05;-16261.94;;;-139.71;58.90
3598;BME280;1813;52.016;8.714;2022-08-07T07:25:39;-16261.94;;;-139.71;58.12
3598;BME280;1813;52.016;8.714;2022-08-07T07:28:19;-16261.94;;;-139.71;57.03
3598;BME280;1813;52.016;8.714;2022-08-07T07:30:55;-16261.94;;;-139.71;55.47
3598;BME280;1813;52.016;8.714;2022-08-07T07:33:31;-16261.94;;;-139.71;53.17
3598;BME280;1813;52.016;8.714;2022-08-07T07:36:05;-16261.94;;;-139.71;54.01
3598;BME280;1813;52.016;8.714;2022-08-07T07:38:39;-16261.94;;;-139.71;51.93
3598;BME280;1813;52.016;8.714;2022-08-07T07:41:12;-16261.94;;;-139.71;50.92
3598;BME280;1813;52.016;8.714;2022-08-07T07:43:49;-16261.94;;;-139.71;52.19
3598;BME280;1813;52.016;8.714;2022-08-07T07:46:21;-16261.94;;;-139.71;52.03
3598;BME280;1813;52.016;8.714;2022-08-07T07:48:56;-16261.94;;;-139.71;52.03
3598;BME280;1813;52.016;8.714;2022-08-07T07:51:31;-16261.94;;;-139.71;52.17
3598;BME280;1813;52.016;8.714;2022-08-07T07:54:04;-16261.94;;;-139.71;51.28
3598;BME280;1813;52.016;8.714;2022-08-07T07:56:37;-16261.94;;;-139.71;49.00
3598;BME280;1813;52.016;8.714;2022-08-07T07:59:11;-16261.94;;;-139.71;49.36
3598;BME280;1813;52.016;8.714;2022-08-07T08:01:47;-16261.94;;;-139.71;49.22
3598;BME280;1813;52.016;8.714;2022-08-07T08:04:22;-16261.94;;;-139.71;47.61
3598;BME280;1813;52.016;8.714;2022-08-07T08:06:54;-16261.94;;;-139.71;45.95
3598;BME280;1813;52.016;8.714;2022-08-07T08:09:27;-16261.94;;;-139.71;46.61
3598;BME280;1813;52.016;8.714;2022-08-07T08:12:00;-16261.94;;;-139.71;44.06
3598;BME280;1813;52.016;8.714;2022-08-07T08:14:34;-16261.94;;;-139.71;44.69
3598;BME280;1813;52.016;8.714;2022-08-07T08:17:08;-16261.94;;;-139.71;43.87
3598;BME280;1813;52.016;8.714;2022-08-07T08:19:43;-16261.94;;;-139.71;43.02
3598;BME280;1813;52.016;8.714;2022-08-07T08:22:16;-16261.94;;;-139.71;44.14
3598;BME280;1813;52.016;8.714;2022-08-07T08:25:07;-16261.94;;;-139.71;44.13
3598;BME280;1813;52.016;8.714;2022-08-07T08:27:57;-16261.94;;;-139.71;44.09
3598;BME280;1813;52.016;8.714;2022-08-07T08:30:33;-16261.94;;;-139.71;41.33
3598;BME280;1813;52.016;8.714;2022-08-07T08:33:08;-16261.94;;;-139.71;40.95
3598;BME280;1813;52.016;8.714;2022-08-07T08:35:48;-16261.94;;;-139.71;43.47
3598;BME280;1813;52.016;8.714;2022-08-07T08:38:22;-16261.94;;;-139.71;41.64
3598;BME280;1813;52.016;8.714;2022-08-07T08:41:00;-16261.94;;;-139.71;41.14
3598;BME280;1813;52.016;8.714;2022-08-07T08:43:38;-16261.94;;;-139.71;41.66
3598;BME280;1813;52.016;8.714;2022-08-07T08:46:16;-16261.94;;;-139.71;40.69
3598;BME280;1813;52.016;8.714;2022-08-07T08:48:56;-16261.94;;;-139.71;40.59
3598;BME280;1813;52.016;8.714;2022-08-07T08:51:35;-16261.94;;;-139.71;38.50
3598;BME280;1813;52.016;8.714;2022-08-07T08:54:13;-16261.94;;;-139.71;38.20
3598;BME280;1813;52.016;8.714;2022-08-07T08:56:48;-16261.94;;;-139.71;37.25
3598;BME280;1813;52.016;8.714;2022-08-07T08:59:26;-16261.94;;;-139.71;37.30
3598;BME280;1813;52.016;8.714;2022-08-07T09:02:05;-16261.94;;;-139.71;36.22
3598;BME280;1813;52.016;8.714;2022-08-07T09:04:44;-16261.94;;;-139.71;33.79
3598;BME280;1813;52.016;8.714;2022-08-07T09:07:26;-16261.94;;;-139.71;33.28
3598;BME280;1813;52.016;8.714;2022-08-07T09:10:09;-16261.94;;;-139.71;34.22
3598;BME280;1813;52.016;8.714;2022-08-07T09:12:54;-16261.94;;;-139.71;34.21
3598;BME280;1813;52.016;8.714;2022-08-07T09:15:33;-16261.94;;;-139.71;33.64
3598;BME280;1813;52.016;8.714;2022-08-07T09:18:22;-16261.94;;;-139.71;35.61
3598;BME280;1813;52.016;8.714;2022-08-07T09:21:04;-16261.94;;;-139.71;34.19
3598;BME280;1813;52.016;8.714;2022-08-07T09:23:52;-16261.94;;;-139.71;32.81
3598;BME280;1813;52.016;8.714;2022-08-07T09:26:31;-16261.94;;;-139.71;33.60
3598;BME280;1813;52.016;8.714;2022-08-07T09:29:12;-16261.94;;;-139.71;33.74
3598;BME280;1813;52.016;8.714;2022-08-07T09:31:55;-16261.94;;;-139.71;33.29
3598;BME280;1813;52.016;8.714;2022-08-07T09:34:41;-16261.94;;;-139.71;32.86
3598;BME280;1813;52.016;8.714;2022-08-07T09:37:21;-16261.94;;;-139.71;33.48
3598;BME280;1813;52.016;8.714;2022-08-07T09:40:02;-16261.94;;;-139.71;31.88
3598;BME280;1813;52.016;8.714;2022-08-07T09:42:47;-16261.94;;;-139.71;32.14
3598;BME280;1813;52.016;8.714;2022-08-07T09:45:32;-16261.94;;;-139.71;32.83
3598;BME280;1813;52.016;8.714;2022-08-07T09:48:18;-16261.94;;;-139.71;31.27
3598;BME280;1813;52.016;8.714;2022-08-07T09:50:58;-16261.94;;;-139.71;32.53
3598;BME280;1813;52.016;8.714;2022-08-07T09:53:35;-16261.94;;;-139.71;30.73
3598;BME280;1813;52.016;8.714;2022-08-07T09:56:43;-16261.94;;;-139.71;31.84
3598;BME280;1813;52.016;8.714;2022-08-07T09:59:32;-16261.94;;;-139.71;30.97
3598;BME280;1813;52.016;8.714;2022-08-07T10:02:24;-16261.94;;;-139.71;29.58
3598;BME280;1813;52.016;8.714;2022-08-07T10:05:22;-16261.94;;;-139.71;30.80
3598;BME280;1813;52.016;8.714;2022-08-07T10:08:03;-16261.94;;;-139.71;30.48
3598;BME280;1813;52.016;8.714;2022-08-07T10:10:47;-16261.94;;;-139.71;29.14
3598;BME280;1813;52.016;8.714;2022-08-07T10:13:38;-16261.94;;;-139.71;29.03
3598;BME280;1813;52.016;8.714;2022-08-07T10:16:32;-16261.94;;;-139.71;28.82
3598;BME280;1813;52.016;8.714;2022-08-07T10:19:18;-16261.94;;;-139.71;28.23
3598;BME280;1813;52.016;8.714;2022-08-07T10:22:02;-16261.94;;;-139.71;30.04
3598;BME280;1813;52.016;8.714;2022-08-07T10:24:50;-16261.94;;;-139.71;29.45
3598;BME280;1813;52.016;8.714;2022-08-07T10:27:34;-16261.94;;;-139.71;29.86
3598;BME280;1813;52.016;8.714;2022-08-07T10:30:15;-16261.94;;;-139.71;29.41
3598;BME280;1813;52.016;8.714;2022-08-07T10:33:13;-16261.94;;;-139.71;29.13
3598;BME280;1813;52.016;8.714;2022-08-07T10:35:59;-16261.94;;;-139.71;29.52
3598;BME280;1813;52.016;8.714;2022-08-07T10:38:42;-16261.94;;;-139.71;29.97
3598;BME280;1813;52.016;8.714;2022-08-07T10:41:26;-16261.94;;;-139.71;30.88
3598;BME280;1813;52.016;8.714;2022-08-07T10:44:09;-16261.94;;;-139.71;28.60
3598;BME280;1813;52.016;8.714;2022-08-07T10:46:52;-16261.94;;;-139.71;27.93
3598;BME280;1813;52.016;8.714;2022-08-07T10:49:36;-16261.94;;;-139.71;29.22
3598;BME280;1813;52.016;8.714;2022-08-07T10:52:13;-16261.94;;;-139.71;28.99
3598;BME280;1813;52.016;8.714;2022-08-07T10:54:56;-16261.94;;;-139.71;28.37
3598;BME280;1813;52.016;8.714;2022-08-07T10:57:33;-16261.94;;;-139.71;30.33
3598;BME280;1813;52.016;8.714;2022-08-07T11:00:11;-16261.94;;;-139.71;29.73
3598;BME280;1813;52.016;8.714;2022-08-07T11:02:55;-16261.94;;;-139.71;29.01
3598;BME280;1813;52.016;8.714;2022-08-07T11:05:34;-16261.94;;;-139.71;28.97
3598;BME280;1813;52.016;8.714;2022-08-07T11:08:11;-16261.94;;;-139.71;28.24
3598;BME280;1813;52.016;8.714;2022-08-07T11:10:47;-16261.94;;;-139.71;29.33
3598;BME280;1813;52.016;8.714;2022-08-07T11:13:24;-16261.94;;;-139.71;29.05
3598;BME280;1813;52.016;8.714;2022-08-07T11:16:03;-16261.94;;;-139.71;27.70
3598;BME280;1813;52.016;8.714;2022-08-07T11:18:44;-16261.94;;;-139.71;27.85
3598;BME280;1813;52.016;8.714;2022-08-07T11:21:26;-16261.94;;;-139.71;27.53
3598;BME280;1813;52.016;8.714;2022-08-07T11:24:04;-16261.94;;;-139.71;27.20
3598;BME280;1813;52.016;8.714;2022-08-07T11:26:44;-16261.94;;;-139.71;28.02
3598;BME280;1813;52.016;8.714;2022-08-07T11:29:26;-16261.94;;;-139.71;27.29
3598;BME280;1813;52.016;8.714;2022-08-07T11:32:04;-16261.94;;;-139.71;27.75
3598;BME280;1813;52.016;8.714;2022-08-07T11:34:43;-16261.94;;;-139.71;28.02
3598;BME280;1813;52.016;8.714;2022-08-07T11:37:33;-16261.94;;;-139.71;29.78
3598;BME280;1813;52.016;8.714;2022-08-07T11:40:13;-16261.94;;;-139.71;29.88
3598;BME280;1813;52.016;8.714;2022-08-07T11:42:55;-16261.94;;;-139.71;28.24
3598;BME280;1813;52.016;8.714;2022-08-07T11:45:33;-16261.94;;;-139.71;27.41
3598;BME280;1813;52.016;8.714;2022-08-07T11:48:23;-16261.94;;;-139.71;28.62
3598;BME280;1813;52.016;8.714;2022-08-07T11:51:09;-16261.94;;;-139.71;29.22
3598;BME280;1813;52.016;8.714;2022-08-07T11:53:52;-16261.94;;;-139.71;29.12
3598;BME280;1813;52.016;8.714;2022-08-07T11:56:39;-16261.94;;;-139.71;28.87
3598;BME280;1813;52.016;8.714;2022-08-07T12:02:35;-16261.94;;;-139.71;29.02
3598;BME280;1813;52.016;8.714;2022-08-07T12:05:18;-16261.94;;;-139.71;29.12
3598;BME280;1813;52.016;8.714;2022-08-07T12:07:56;-16261.94;;;-139.71;26.77
3598;BME280;1813;52.016;8.714;2022-08-07T12:10:37;-16261.94;;;-139.71;28.07
3598;BME280;1813;52.016;8.714;2022-08-07T12:13:15;-16261.94;;;-139.71;28.80
3598;BME280;1813;52.016;8.714;2022-08-07T12:15:51;-16261.94;;;-139.71;27.60
3598;BME280;1813;52.016;8.714;2022-08-07T12:18:30;-16261.94;;;-139.71;27.60
3598;BME280;1813;52.016;8.714;2022-08-07T12:21:15;-16261.94;;;-139.71;28.21
3598;BME280;1813;52.016;8.714;2022-08-07T12:23:56;-16261.94;;;-139.71;27.29
3598;BME280;1813;52.016;8.714;2022-08-07T12:26:37;-16261.94;;;-139.71;28.45
3598;BME280;1813;52.016;8.714;2022-08-07T12:29:16;-16261.94;;;-139.71;28.04
3598;BME280;1813;52.016;8.714;2022-08-07T12:31:56;-16261.94;;;-139.71;27.60
3598;BME280;1813;52.016;8.714;2022-08-07T12:34:32;-16261.94;;;-139.71;28.77
3598;BME280;1813;52.016;8.714;2022-08-07T12:37:06;-16261.94;;;-139.71;27.76
3598;BME280;1813;52.016;8.714;2022-08-07T12:39:41;-16261.94;;;-139.71;29.18
3598;BME280;1813;52.016;8.714;2022-08-07T12:42:18;-16261.94;;;-139.71;28.39
3598;BME280;1813;52.016;8.714;2022-08-07T12:44:51;-16261.94;;;-139.71;28.66
3598;BME280;1813;52.016;8.714;2022-08-07T12:47:32;-16261.94;;;-139.71;28.51
3598;BME280;1813;52.016;8.714;2022-08-07T12:50:12;-16261.94;;;-139.71;27.86
3598;BME280;1813;52.016;8.714;2022-08-07T12:52:48;-16261.94;;;-139.71;27.77
3598;BME280;1813;52.016;8.714;2022-08-07T12:55:26;-16261.94;;;-139.71;27.93
3598;BME280;1813;52.016;8.714;2022-08-07T12:58:01;-16261.94;;;-139.71;27.68
3598;BME280;1813;52.016;8.714;2022-08-07T13:00:45;-16261.94;;;-139.71;27.14
3598;BME280;1813;52.016;8.714;2022-08-07T13:03:30;-16261.94;;;-139.71;27.89
3598;BME280;1813;52.016;8.714;2022-08-07T13:06:17;-16261.94;;;-139.71;26.34
3598;BME280;1813;52.016;8.714;2022-08-07T13:08:59;-16261.94;;;-139.71;26.91
3598;BME280;1813;52.016;8.714;2022-08-07T13:11:44;-16261.94;;;-139.71;26.85
3598;BME280;1813;52.016;8.714;2022-08-07T13:14:28;-16261.94;;;-139.71;26.19
3598;BME280;1813;52.016;8.714;2022-08-07T13:17:05;-16261.94;;;-139.71;26.58
3598;BME280;1813;52.016;8.714;2022-08-07T13:19:44;-16261.94;;;-139.71;25.71
3598;BME280;1813;52.016;8.714;2022-08-07T13:22:23;-16261.94;;;-139.71;26.88
3598;BME280;1813;52.016;8.714;2022-08-07T13:25:03;-16261.94;;;-139.71;26.69
3598;BME280;1813;52.016;8.714;2022-08-07T13:27:42;-16261.94;;;-139.71;26.18
3598;BME280;1813;52.016;8.714;2022-08-07T13:30:16;-16261.94;;;-139.71;25.82
3598;BME280;1813;52.016;8.714;2022-08-07T13:32:52;-16261.94;;;-139.71;25.18
3598;BME280;1813;52.016;8.714;2022-08-07T13:35:36;-16261.94;;;-139.71;24.72
3598;BME280;1813;52.016;8.714;2022-08-07T13:38:13;-16261.94;;;-139.71;26.79
3598;BME280;1813;52.016;8.714;2022-08-07T13:40:52;-16261.94;;;-139.71;26.87
3598;BME280;1813;52.016;8.714;2022-08-07T13:43:30;-16261.94;;;-139.71;25.99
3598;BME280;1813;52.016;8.714;2022-08-07T13:46:04;-16261.94;;;-139.71;25.19